Shinkomaru No.18 — JD3625 — position and weather

sailwx.info

Track history (hours):
 
Tides and Currents Weather Stations Pressure Air Temp Water Temp Dewpoint Dewpoint Depression Visibility Wind Speed Wind Dir Waves Ship Positions

Shinkomaru No.18

Last reported at 2018-Jun-24 19:01 UTC. Time now 2018-Jun-25 19:46 UTC.
Position N 34°26' E 134°00'.

Length 82 m; draft 4.6 m.

Type: Cargo ship. MMSI: 431005083.

Date/timePositionNaut miles runAvg speedWind from/ knotsBaromVisibWave heightAir tempDewpointWater temp
2018-Jun-24 19:01N 34°26' E 134°00'911.7
2018-Jun-24 18:13N 34°25' E 134°12'311.8
2018-Jun-24 17:59N 34°24' E 134°15'611.8
2018-Jun-24 17:30N 34°22' E 134°21'611.9
2018-Jun-24 16:59N 34°19' E 134°28'2110.9
2018-Jun-24 15:05N 34°06' E 134°47'111.1
2018-Jun-24 14:59N 34°05' E 134°48'511.2
2018-Jun-24 14:30N 34°01' E 134°52'510.8
2018-Jun-24 14:00N 33°57' E 134°56'250 9.2
2018-Jun-23 10:41N 35°13' E 139°46'212.1
2018-Jun-23 10:30N 35°15' E 139°46'611.8
2018-Jun-23 10:01N 35°20' E 139°42'611.1
2018-Jun-23 09:30N 35°26' E 139°44'4 8.2
2018-Jun-23 09:00N 35°24' E 139°49'3 6.7
2018-Jun-23 08:30N 35°22' E 139°52'0 0.0
2018-Jun-23 07:59N 35°22' E 139°52'0 0.0
2018-Jun-23 07:30N 35°22' E 139°52'0 0.0
2018-Jun-23 07:00N 35°22' E 139°52'0 0.0
2018-Jun-23 06:29N 35°22' E 139°52'0 0.0
2018-Jun-23 05:56N 35°22' E 139°52'0 0.0
2018-Jun-23 05:16N 35°22' E 139°52'0 0.0
2018-Jun-23 03:58N 35°22' E 139°52'0 0.1
2018-Jun-23 03:30N 35°22' E 139°52'3 5.7
2018-Jun-23 02:57N 35°24' E 139°49'0 0.7
2018-Jun-23 02:29N 35°24' E 139°49'0 0.0
2018-Jun-23 02:00N 35°24' E 139°49'0 0.0
2018-Jun-23 01:30N 35°24' E 139°49'0 0.1
2018-Jun-23 01:00N 35°24' E 139°49'3 5.9
2018-Jun-23 00:31N 35°25' E 139°46'1 2.3
2018-Jun-23 00:00N 35°24' E 139°45'0 0.0
2018-Jun-22 23:30N 35°24' E 139°45'0 0.1
2018-Jun-22 23:00N 35°24' E 139°45'0 0.1
2018-Jun-22 22:30N 35°24' E 139°45'0 0.0
2018-Jun-22 22:00N 35°24' E 139°45'0 0.1
2018-Jun-22 21:30N 35°24' E 139°45'0 0.0
2018-Jun-22 21:00N 35°24' E 139°45'0 0.0
2018-Jun-22 20:30N 35°24' E 139°45'0 0.0
2018-Jun-22 20:01N 35°24' E 139°45'0 0.0
2018-Jun-22 19:30N 35°24' E 139°45'0 0.0
2018-Jun-22 19:00N 35°24' E 139°45'0 0.0
2018-Jun-22 18:30N 35°24' E 139°45'0 0.0
2018-Jun-22 18:00N 35°24' E 139°45'0 0.1
2018-Jun-22 17:30N 35°24' E 139°45'0 0.1
2018-Jun-22 17:01N 35°24' E 139°45'0 0.1
2018-Jun-22 16:30N 35°24' E 139°45'0 0.0
2018-Jun-22 16:01N 35°24' E 139°45'0 0.0
2018-Jun-22 15:31N 35°24' E 139°45'0 0.0
2018-Jun-22 15:00N 35°24' E 139°45'0 0.0
2018-Jun-22 14:30N 35°24' E 139°45'0 0.0
2018-Jun-22 14:00N 35°24' E 139°45'0 0.1
2018-Jun-22 13:29N 35°24' E 139°45'0 0.0
2018-Jun-22 13:00N 35°24' E 139°45'0 0.0
2018-Jun-22 12:30N 35°24' E 139°45'0 0.0
2018-Jun-22 11:59N 35°24' E 139°45'0 0.0
2018-Jun-22 11:30N 35°24' E 139°45'0 0.3
2018-Jun-22 11:00N 35°23' E 139°45'5 9.9
2018-Jun-22 10:30N 35°19' E 139°44'611.0
2018-Jun-22 10:00N 35°14' E 139°47'24810.1
2018-Jun-21 09:29N 33°52' E 135°03'510.4
2018-Jun-21 09:00N 33°56' E 135°01'510.6
2018-Jun-21 08:30N 34°02' E 134°60'510.8
2018-Jun-21 08:00N 34°07' E 134°59'610.9
2018-Jun-21 07:30N 34°13' E 134°59'510.5
2018-Jun-21 07:00N 34°18' E 134°59'510.3
2018-Jun-21 06:31N 34°23' E 134°60'510.8
2018-Jun-21 06:01N 34°28' E 135°01'510.5
2018-Jun-21 05:30N 34°33' E 135°03'4 8.2
2018-Jun-21 05:00N 34°37' E 135°01'810.1
2018-Jun-21 04:11N 34°34' E 134°51'210.5
2018-Jun-21 04:00N 34°33' E 134°49'611.0
2018-Jun-21 03:28N 34°31' E 134°43'511.1
2018-Jun-21 02:59N 34°29' E 134°37'611.1
2018-Jun-21 02:29N 34°27' E 134°30'11 0.3
2018-Jun-19 17:01N 34°23' E 134°17'012.6
2018-Jun-19 17:00N 34°23' E 134°18'612.1
2018-Jun-19 16:30N 34°21' E 134°24'712.0
2018-Jun-19 15:57N 34°18' E 134°32'812.4
2018-Jun-19 15:19N 34°14' E 134°39'812.2
2018-Jun-19 14:38N 34°07' E 134°46'111.6
2018-Jun-19 14:30N 34°06' E 134°48'611.9
2018-Jun-19 14:00N 34°02' E 134°53'612.4
2018-Jun-19 13:29N 33°57' E 134°57'  
2018-Jun-16 04:42N 35°12' E 139°46'311.8
2018-Jun-16 04:29N 35°14' E 139°46'611.6
2018-Jun-16 04:00N 35°19' E 139°43'510.8
2018-Jun-16 03:30N 35°25' E 139°43'612.1
2018-Jun-16 02:59N 35°28' E 139°50'610.8
2018-Jun-16 02:25N 35°29' E 139°57'2 0.9
2018-Jun-16 00:29N 35°27' E 139°58'0 0.0
2018-Jun-15 23:52N 35°27' E 139°58'0 0.0
2018-Jun-15 23:29N 35°27' E 139°58'2 3.9
2018-Jun-15 22:51N 35°29' E 139°56'0 0.2
2018-Jun-15 22:30N 35°29' E 139°56'0 0.0
2018-Jun-15 21:59N 35°29' E 139°56'0 0.0
2018-Jun-15 21:31N 35°29' E 139°56'0 0.0
2018-Jun-15 21:00N 35°29' E 139°56'0 0.1
2018-Jun-15 20:29N 35°29' E 139°56'0 0.0
2018-Jun-15 19:59N 35°29' E 139°56'0 0.0
2018-Jun-15 19:30N 35°29' E 139°56'0 0.1
2018-Jun-15 18:59N 35°29' E 139°56'0 0.0
2018-Jun-15 18:30N 35°29' E 139°56'0 0.1
2018-Jun-15 17:59N 35°29' E 139°56'0 0.1
2018-Jun-15 17:29N 35°29' E 139°56'0 0.0
2018-Jun-15 16:57N 35°29' E 139°56'0 0.0
2018-Jun-15 16:30N 35°29' E 139°56'0 0.1
2018-Jun-15 16:01N 35°29' E 139°56'4 8.5
2018-Jun-15 15:30N 35°28' E 139°51'510.1
2018-Jun-15 15:00N 35°23' E 139°49'3 5.5
2018-Jun-15 14:30N 35°22' E 139°52'0 0.0
2018-Jun-15 13:59N 35°22' E 139°52'0 0.0
2018-Jun-15 13:30N 35°22' E 139°52'0 0.0
2018-Jun-15 13:00N 35°22' E 139°52'0 0.0
2018-Jun-15 12:30N 35°22' E 139°52'0 0.0
2018-Jun-15 12:00N 35°22' E 139°52'0 0.0
2018-Jun-15 10:24N 35°22' E 139°52'2 5.5
2018-Jun-15 10:00N 35°23' E 139°50'1 1.7
2018-Jun-15 09:30N 35°24' E 139°49'0 0.1
2018-Jun-15 09:00N 35°24' E 139°49'0 0.0
2018-Jun-15 08:30N 35°24' E 139°49'0 0.1
2018-Jun-15 08:00N 35°24' E 139°49'0 0.0
2018-Jun-15 07:30N 35°24' E 139°49'0 0.1
2018-Jun-15 07:00N 35°24' E 139°49'0 0.1
2018-Jun-15 06:28N 35°24' E 139°49'0 0.0
2018-Jun-15 05:58N 35°24' E 139°49'0 0.0
2018-Jun-15 05:30N 35°24' E 139°49'0 0.0
2018-Jun-15 04:59N 35°24' E 139°49'0 0.0
2018-Jun-15 04:20N 35°24' E 139°49'0 0.1
2018-Jun-15 03:56N 35°24' E 139°49'0 0.1
2018-Jun-15 03:30N 35°24' E 139°49'0 0.0
2018-Jun-15 03:00N 35°24' E 139°49'0 0.0
2018-Jun-15 02:30N 35°24' E 139°49'0 0.1
2018-Jun-15 01:56N 35°24' E 139°49'0 0.0
2018-Jun-15 01:29N 35°24' E 139°49'0 0.0
2018-Jun-15 00:47N 35°24' E 139°49'0 0.0
2018-Jun-15 00:29N 35°24' E 139°49'0 0.0
2018-Jun-15 00:00N 35°24' E 139°49'0 0.0
2018-Jun-14 23:30N 35°24' E 139°49'0 0.0
2018-Jun-14 23:00N 35°24' E 139°49'0 0.0
2018-Jun-14 22:29N 35°24' E 139°49'0 0.1
2018-Jun-14 22:00N 35°24' E 139°49'0 0.0
2018-Jun-14 21:30N 35°24' E 139°49'0 0.1
2018-Jun-14 21:00N 35°24' E 139°49'0 0.1
2018-Jun-14 20:26N 35°24' E 139°49'0 0.0
2018-Jun-14 20:00N 35°24' E 139°49'0 0.0
2018-Jun-14 19:30N 35°24' E 139°49'  
Track history (hours):
 
Tides and Currents Weather Stations Pressure Air Temp Water Temp Dewpoint Dewpoint Depression Visibility Wind Speed Wind Dir Waves Ship Positions

Shinkomaru No.18

Last reported at 2018-Jun-24 19:01 UTC. Time now 2018-Jun-25 19:46 UTC.
Position N 34°26' E 134°00'.

Length 82 m; draft 4.6 m.

Type: Cargo ship. MMSI: 431005083.

Date/timePositionNaut miles runAvg speedWind from/ knotsBaromVisibWave heightAir tempDewpointWater temp
2018-Jun-24 19:01N 34°26' E 134°00'911.7
2018-Jun-24 18:13N 34°25' E 134°12'311.8
2018-Jun-24 17:59N 34°24' E 134°15'611.8
2018-Jun-24 17:30N 34°22' E 134°21'611.9
2018-Jun-24 16:59N 34°19' E 134°28'2110.9
2018-Jun-24 15:05N 34°06' E 134°47'111.1
2018-Jun-24 14:59N 34°05' E 134°48'511.2
2018-Jun-24 14:30N 34°01' E 134°52'510.8
2018-Jun-24 14:00N 33°57' E 134°56'250 9.2
2018-Jun-23 10:41N 35°13' E 139°46'212.1
2018-Jun-23 10:30N 35°15' E 139°46'611.8
2018-Jun-23 10:01N 35°20' E 139°42'611.1
2018-Jun-23 09:30N 35°26' E 139°44'4 8.2
2018-Jun-23 09:00N 35°24' E 139°49'3 6.7
2018-Jun-23 08:30N 35°22' E 139°52'0 0.0
2018-Jun-23 07:59N 35°22' E 139°52'0 0.0
2018-Jun-23 07:30N 35°22' E 139°52'0 0.0
2018-Jun-23 07:00N 35°22' E 139°52'0 0.0
2018-Jun-23 06:29N 35°22' E 139°52'0 0.0
2018-Jun-23 05:56N 35°22' E 139°52'0 0.0
2018-Jun-23 05:16N 35°22' E 139°52'0 0.0
2018-Jun-23 03:58N 35°22' E 139°52'0 0.1
2018-Jun-23 03:30N 35°22' E 139°52'3 5.7
2018-Jun-23 02:57N 35°24' E 139°49'0 0.7
2018-Jun-23 02:29N 35°24' E 139°49'0 0.0
2018-Jun-23 02:00N 35°24' E 139°49'0 0.0
2018-Jun-23 01:30N 35°24' E 139°49'0 0.1
2018-Jun-23 01:00N 35°24' E 139°49'3 5.9
2018-Jun-23 00:31N 35°25' E 139°46'1 2.3
2018-Jun-23 00:00N 35°24' E 139°45'0 0.0
2018-Jun-22 23:30N 35°24' E 139°45'0 0.1
2018-Jun-22 23:00N 35°24' E 139°45'0 0.1
2018-Jun-22 22:30N 35°24' E 139°45'0 0.0
2018-Jun-22 22:00N 35°24' E 139°45'0 0.1
2018-Jun-22 21:30N 35°24' E 139°45'0 0.0
2018-Jun-22 21:00N 35°24' E 139°45'0 0.0
2018-Jun-22 20:30N 35°24' E 139°45'0 0.0
2018-Jun-22 20:01N 35°24' E 139°45'0 0.0
2018-Jun-22 19:30N 35°24' E 139°45'0 0.0
2018-Jun-22 19:00N 35°24' E 139°45'0 0.0
2018-Jun-22 18:30N 35°24' E 139°45'0 0.0
2018-Jun-22 18:00N 35°24' E 139°45'0 0.1
2018-Jun-22 17:30N 35°24' E 139°45'0 0.1
2018-Jun-22 17:01N 35°24' E 139°45'0 0.1
2018-Jun-22 16:30N 35°24' E 139°45'0 0.0
2018-Jun-22 16:01N 35°24' E 139°45'0 0.0
2018-Jun-22 15:31N 35°24' E 139°45'0 0.0
2018-Jun-22 15:00N 35°24' E 139°45'0 0.0
2018-Jun-22 14:30N 35°24' E 139°45'0 0.0
2018-Jun-22 14:00N 35°24' E 139°45'0 0.1
2018-Jun-22 13:29N 35°24' E 139°45'0 0.0
2018-Jun-22 13:00N 35°24' E 139°45'0 0.0
2018-Jun-22 12:30N 35°24' E 139°45'0 0.0
2018-Jun-22 11:59N 35°24' E 139°45'0 0.0
2018-Jun-22 11:30N 35°24' E 139°45'0 0.3
2018-Jun-22 11:00N 35°23' E 139°45'5 9.9
2018-Jun-22 10:30N 35°19' E 139°44'611.0
2018-Jun-22 10:00N 35°14' E 139°47'24810.1
2018-Jun-21 09:29N 33°52' E 135°03'510.4
2018-Jun-21 09:00N 33°56' E 135°01'510.6
2018-Jun-21 08:30N 34°02' E 134°60'510.8
2018-Jun-21 08:00N 34°07' E 134°59'610.9
2018-Jun-21 07:30N 34°13' E 134°59'510.5
2018-Jun-21 07:00N 34°18' E 134°59'510.3
2018-Jun-21 06:31N 34°23' E 134°60'510.8
2018-Jun-21 06:01N 34°28' E 135°01'510.5
2018-Jun-21 05:30N 34°33' E 135°03'4 8.2
2018-Jun-21 05:00N 34°37' E 135°01'810.1
2018-Jun-21 04:11N 34°34' E 134°51'210.5
2018-Jun-21 04:00N 34°33' E 134°49'611.0
2018-Jun-21 03:28N 34°31' E 134°43'511.1
2018-Jun-21 02:59N 34°29' E 134°37'611.1
2018-Jun-21 02:29N 34°27' E 134°30'11 0.3
2018-Jun-19 17:01N 34°23' E 134°17'012.6
2018-Jun-19 17:00N 34°23' E 134°18'612.1
2018-Jun-19 16:30N 34°21' E 134°24'712.0
2018-Jun-19 15:57N 34°18' E 134°32'812.4
2018-Jun-19 15:19N 34°14' E 134°39'812.2
2018-Jun-19 14:38N 34°07' E 134°46'111.6
2018-Jun-19 14:30N 34°06' E 134°48'611.9
2018-Jun-19 14:00N 34°02' E 134°53'612.4
2018-Jun-19 13:29N 33°57' E 134°57'  
2018-Jun-16 04:42N 35°12' E 139°46'311.8
2018-Jun-16 04:29N 35°14' E 139°46'611.6
2018-Jun-16 04:00N 35°19' E 139°43'510.8
2018-Jun-16 03:30N 35°25' E 139°43'612.1
2018-Jun-16 02:59N 35°28' E 139°50'610.8
2018-Jun-16 02:25N 35°29' E 139°57'2 0.9
2018-Jun-16 00:29N 35°27' E 139°58'0 0.0
2018-Jun-15 23:52N 35°27' E 139°58'0 0.0
2018-Jun-15 23:29N 35°27' E 139°58'2 3.9
2018-Jun-15 22:51N 35°29' E 139°56'0 0.2
2018-Jun-15 22:30N 35°29' E 139°56'0 0.0
2018-Jun-15 21:59N 35°29' E 139°56'0 0.0
2018-Jun-15 21:31N 35°29' E 139°56'0 0.0
2018-Jun-15 21:00N 35°29' E 139°56'0 0.1
2018-Jun-15 20:29N 35°29' E 139°56'0 0.0
2018-Jun-15 19:59N 35°29' E 139°56'0 0.0
2018-Jun-15 19:30N 35°29' E 139°56'0 0.1
2018-Jun-15 18:59N 35°29' E 139°56'0 0.0
2018-Jun-15 18:30N 35°29' E 139°56'0 0.1
2018-Jun-15 17:59N 35°29' E 139°56'0 0.1
2018-Jun-15 17:29N 35°29' E 139°56'0 0.0
2018-Jun-15 16:57N 35°29' E 139°56'0 0.0
2018-Jun-15 16:30N 35°29' E 139°56'0 0.1
2018-Jun-15 16:01N 35°29' E 139°56'4 8.5
2018-Jun-15 15:30N 35°28' E 139°51'510.1
2018-Jun-15 15:00N 35°23' E 139°49'3 5.5
2018-Jun-15 14:30N 35°22' E 139°52'0 0.0
2018-Jun-15 13:59N 35°22' E 139°52'0 0.0
2018-Jun-15 13:30N 35°22' E 139°52'0 0.0
2018-Jun-15 13:00N 35°22' E 139°52'0 0.0
2018-Jun-15 12:30N 35°22' E 139°52'0 0.0
2018-Jun-15 12:00N 35°22' E 139°52'0 0.0
2018-Jun-15 10:24N 35°22' E 139°52'2 5.5
2018-Jun-15 10:00N 35°23' E 139°50'1 1.7
2018-Jun-15 09:30N 35°24' E 139°49'0 0.1
2018-Jun-15 09:00N 35°24' E 139°49'0 0.0
2018-Jun-15 08:30N 35°24' E 139°49'0 0.1
2018-Jun-15 08:00N 35°24' E 139°49'0 0.0
2018-Jun-15 07:30N 35°24' E 139°49'0 0.1
2018-Jun-15 07:00N 35°24' E 139°49'0 0.1
2018-Jun-15 06:28N 35°24' E 139°49'0 0.0
2018-Jun-15 05:58N 35°24' E 139°49'0 0.0
2018-Jun-15 05:30N 35°24' E 139°49'0 0.0
2018-Jun-15 04:59N 35°24' E 139°49'0 0.0
2018-Jun-15 04:20N 35°24' E 139°49'0 0.1
2018-Jun-15 03:56N 35°24' E 139°49'0 0.1
2018-Jun-15 03:30N 35°24' E 139°49'0 0.0
2018-Jun-15 03:00N 35°24' E 139°49'0 0.0
2018-Jun-15 02:30N 35°24' E 139°49'0 0.1
2018-Jun-15 01:56N 35°24' E 139°49'0 0.0
2018-Jun-15 01:29N 35°24' E 139°49'0 0.0
2018-Jun-15 00:47N 35°24' E 139°49'0 0.0
2018-Jun-15 00:29N 35°24' E 139°49'0 0.0
2018-Jun-15 00:00N 35°24' E 139°49'0 0.0
2018-Jun-14 23:30N 35°24' E 139°49'0 0.0
2018-Jun-14 23:00N 35°24' E 139°49'0 0.0
2018-Jun-14 22:29N 35°24' E 139°49'0 0.1
2018-Jun-14 22:00N 35°24' E 139°49'0 0.0
2018-Jun-14 21:30N 35°24' E 139°49'0 0.1
2018-Jun-14 21:00N 35°24' E 139°49'0 0.1
2018-Jun-14 20:26N 35°24' E 139°49'0 0.0
2018-Jun-14 20:00N 35°24' E 139°49'0 0.0
2018-Jun-14 19:30N 35°24' E 139°49'  

Dump ship's entire track history